Time,TemperatureF,DewpointF,PressureIn,WindDirection,WindDirectionDegrees,WindSpeedMPH,WindSpeedGustMPH,Humidity,HourlyPrecipIn,Conditions,Clouds,dailyrainin,SoftwareType,DateUTC
2013-02-16 00:00:00,46.8,36.4,29.88,SSE,150,3.0,7.0,67,0.00,,,0.00,Wunderground PWS Mod,2013-02-16 05:00:00,
2013-02-16 00:05:00,46.8,36.4,29.88,SSE,150,3.0,7.0,67,0.00,,,0.00,Wunderground PWS Mod,2013-02-16 05:05:00,
2013-02-16 00:10:00,46.8,36.4,29.88,SSE,150,3.0,7.0,67,0.00,,,0.00,Wunderground PWS Mod,2013-02-16 05:10:00,
2013-02-16 00:15:00,46.8,36.4,29.88,SSE,150,3.0,7.0,67,0.00,,,0.00,Wunderground PWS Mod,2013-02-16 05:15:00,
2013-02-16 00:20:00,46.8,36.4,29.88,SSE,150,3.0,7.0,67,0.00,,,0.00,Wunderground PWS Mod,2013-02-16 05:20:00,
2013-02-16 00:25:00,46.8,36.4,29.88,SSE,150,3.0,7.0,67,0.00,,,0.00,Wunderground PWS Mod,2013-02-16 05:25:00,
2013-02-16 00:30:00,46.8,36.4,29.88,SSE,150,3.0,7.0,67,0.00,,,0.00,Wunderground PWS Mod,2013-02-16 05:30:00,
2013-02-16 00:35:00,46.8,36.4,29.88,SSE,150,3.0,7.0,67,0.00,,,0.00,Wunderground PWS Mod,2013-02-16 05:35:00,
2013-02-16 00:40:00,46.8,36.4,29.88,SSE,150,3.0,7.0,67,0.00,,,0.00,Wunderground PWS Mod,2013-02-16 05:40:00,
2013-02-16 00:45:00,45.2,36.0,29.87,SSE,150,1.0,5.0,70,0.00,,,0.00,Wunderground PWS Mod,2013-02-16 05:45:00,
2013-02-16 00:50:00,45.2,36.0,29.87,SSE,150,1.0,5.0,70,0.00,,,0.00,Wunderground PWS Mod,2013-02-16 05:50:00,
2013-02-16 00:55:00,45.2,36.0,29.87,SSE,150,1.0,5.0,70,0.00,,,0.00,Wunderground PWS Mod,2013-02-16 05:55:00,
2013-02-16 01:00:00,45.2,36.0,29.87,SSE,150,1.0,5.0,70,0.00,,,0.00,Wunderground PWS Mod,2013-02-16 06:00:00,
2013-02-16 01:05:00,45.2,36.0,29.87,SSE,150,1.0,5.0,70,0.00,,,0.00,Wunderground PWS Mod,2013-02-16 06:05:00,
2013-02-16 01:10:00,45.2,36.0,29.87,SSE,150,1.0,5.0,70,0.00,,,0.00,Wunderground PWS Mod,2013-02-16 06:10:00,
2013-02-16 01:15:00,44.2,35.7,29.88,North,0,1.0,6.0,72,0.00,,,0.00,Wunderground PWS Mod,2013-02-16 06:15:00,
2013-02-16 01:20:00,44.2,35.7,29.88,North,0,1.0,6.0,72,0.00,,,0.00,Wunderground PWS Mod,2013-02-16 06:20:00,
2013-02-16 01:25:00,44.2,35.7,29.88,North,0,1.0,6.0,72,0.00,,,0.00,Wunderground PWS Mod,2013-02-16 06:25:00,
2013-02-16 01:30:00,44.2,35.7,29.88,North,0,1.0,6.0,72,0.00,,,0.00,Wunderground PWS Mod,2013-02-16 06:30:00,
2013-02-16 01:35:00,44.2,35.7,29.88,North,0,1.0,6.0,72,0.00,,,0.00,Wunderground PWS Mod,2013-02-16 06:35:00,
2013-02-16 01:40:00,44.2,35.7,29.88,North,0,1.0,6.0,72,0.00,,,0.00,Wunderground PWS Mod,2013-02-16 06:40:00,
2013-02-16 01:45:00,43.3,34.9,29.88,North,0,1.0,6.0,72,0.00,,,0.00,Wunderground PWS Mod,2013-02-16 06:45:00,
2013-02-16 01:50:00,43.3,34.9,29.88,North,0,1.0,6.0,72,0.00,,,0.00,Wunderground PWS Mod,2013-02-16 06:50:00,
2013-02-16 01:55:00,43.3,34.9,29.88,North,0,1.0,6.0,72,0.00,,,0.00,Wunderground PWS Mod,2013-02-16 06:55:00,
2013-02-16 02:00:00,43.3,34.9,29.88,North,0,1.0,6.0,72,0.00,,,0.00,Wunderground PWS Mod,2013-02-16 07:00:00,
2013-02-16 02:05:00,43.3,34.9,29.88,North,0,1.0,6.0,72,0.00,,,0.00,Wunderground PWS Mod,2013-02-16 07:05:00,
2013-02-16 02:10:00,43.3,34.9,29.88,North,0,1.0,6.0,72,0.00,,,0.00,Wunderground PWS Mod,2013-02-16 07:10:00,
2013-02-16 02:15:00,42.6,33.9,29.88,NNE,30,1.0,5.0,71,0.00,,,0.00,Wunderground PWS Mod,2013-02-16 07:15:00,
2013-02-16 02:20:00,42.6,33.9,29.88,NNE,30,1.0,5.0,71,0.00,,,0.00,Wunderground PWS Mod,2013-02-16 07:20:00,
2013-02-16 02:25:00,42.6,33.9,29.88,NNE,30,1.0,5.0,71,0.00,,,0.00,Wunderground PWS Mod,2013-02-16 07:25:00,
2013-02-16 02:30:00,42.6,33.9,29.88,NNE,30,1.0,5.0,71,0.00,,,0.00,Wunderground PWS Mod,2013-02-16 07:30:00,
2013-02-16 02:35:00,42.6,33.9,29.88,NNE,30,1.0,5.0,71,0.00,,,0.00,Wunderground PWS Mod,2013-02-16 07:35:00,
2013-02-16 02:40:00,42.6,33.9,29.88,NNE,30,1.0,5.0,71,0.00,,,0.00,Wunderground PWS Mod,2013-02-16 07:40:00,
2013-02-16 02:45:00,42.2,33.5,29.87,North,0,1.0,4.0,71,0.00,,,0.00,Wunderground PWS Mod,2013-02-16 07:45:00,
2013-02-16 02:50:00,42.2,33.5,29.87,North,0,1.0,4.0,71,0.00,,,0.00,Wunderground PWS Mod,2013-02-16 07:50:00,
2013-02-16 02:55:00,42.2,33.5,29.87,North,0,1.0,4.0,71,0.00,,,0.00,Wunderground PWS Mod,2013-02-16 07:55:00,
2013-02-16 03:00:00,42.2,33.5,29.87,North,0,1.0,4.0,71,0.00,,,0.00,Wunderground PWS Mod,2013-02-16 08:00:00,
2013-02-16 03:05:00,42.2,33.5,29.87,North,0,1.0,4.0,71,0.00,,,0.00,Wunderground PWS Mod,2013-02-16 08:05:00,
2013-02-16 03:10:00,42.2,33.5,29.87,North,0,1.0,4.0,71,0.00,,,0.00,Wunderground PWS Mod,2013-02-16 08:10:00,
2013-02-16 03:15:00,41.8,32.7,29.87,NNE,30,1.0,5.0,70,0.00,,,0.00,Wunderground PWS Mod,2013-02-16 08:15:00,
2013-02-16 03:20:00,41.8,32.7,29.87,NNE,30,1.0,5.0,70,0.00,,,0.00,Wunderground PWS Mod,2013-02-16 08:20:00,
2013-02-16 03:25:00,41.8,32.7,29.87,NNE,30,1.0,5.0,70,0.00,,,0.00,Wunderground PWS Mod,2013-02-16 08:25:00,
2013-02-16 03:30:00,41.8,32.7,29.87,NNE,30,1.0,5.0,70,0.00,,,0.00,Wunderground PWS Mod,2013-02-16 08:30:00,
2013-02-16 03:35:00,41.8,32.7,29.87,NNE,30,1.0,5.0,70,0.00,,,0.00,Wunderground PWS Mod,2013-02-16 08:35:00,
2013-02-16 03:40:00,41.8,32.7,29.87,NNE,30,1.0,5.0,70,0.00,,,0.00,Wunderground PWS Mod,2013-02-16 08:40:00,
2013-02-16 03:45:00,41.5,32.4,29.86,NNE,30,1.0,9.0,70,0.00,,,0.00,Wunderground PWS Mod,2013-02-16 08:45:00,
2013-02-16 03:50:00,41.5,32.4,29.86,NNE,30,1.0,9.0,70,0.00,,,0.00,Wunderground PWS Mod,2013-02-16 08:50:00,
2013-02-16 03:55:00,41.5,32.4,29.86,NNE,30,1.0,9.0,70,0.00,,,0.00,Wunderground PWS Mod,2013-02-16 08:55:00,
2013-02-16 04:00:00,41.5,32.4,29.86,NNE,30,1.0,9.0,70,0.00,,,0.00,Wunderground PWS Mod,2013-02-16 09:00:00,
2013-02-16 04:05:00,41.5,32.4,29.86,NNE,30,1.0,9.0,70,0.00,,,0.00,Wunderground PWS Mod,2013-02-16 09:05:00,
2013-02-16 04:10:00,41.5,32.4,29.86,NNE,30,1.0,9.0,70,0.00,,,0.00,Wunderground PWS Mod,2013-02-16 09:10:00,
2013-02-16 04:15:00,41.3,31.5,29.86,North,0,1.0,6.0,68,0.00,,,0.00,Wunderground PWS Mod,2013-02-16 09:15:00,
2013-02-16 04:20:00,41.3,31.5,29.86,North,0,1.0,6.0,68,0.00,,,0.00,Wunderground PWS Mod,2013-02-16 09:20:00,
2013-02-16 04:25:00,41.3,31.5,29.86,North,0,1.0,6.0,68,0.00,,,0.00,Wunderground PWS Mod,2013-02-16 09:25:00,
2013-02-16 04:30:00,41.3,31.5,29.86,North,0,1.0,6.0,68,0.00,,,0.00,Wunderground PWS Mod,2013-02-16 09:30:00,
2013-02-16 04:35:00,41.3,31.5,29.86,North,0,1.0,6.0,68,0.00,,,0.00,Wunderground PWS Mod,2013-02-16 09:35:00,
2013-02-16 04:40:00,41.3,31.5,29.86,North,0,1.0,6.0,68,0.00,,,0.00,Wunderground PWS Mod,2013-02-16 09:40:00,
2013-02-16 04:45:00,41.3,31.5,29.87,North,0,2.0,8.0,68,0.00,,,0.00,Wunderground PWS Mod,2013-02-16 09:45:00,
2013-02-16 04:50:00,41.3,31.5,29.87,North,0,2.0,8.0,68,0.00,,,0.00,Wunderground PWS Mod,2013-02-16 09:50:00,
2013-02-16 04:55:00,41.3,31.5,29.87,North,0,2.0,8.0,68,0.00,,,0.00,Wunderground PWS Mod,2013-02-16 09:55:00,
2013-02-16 05:00:00,41.3,31.5,29.87,North,0,2.0,8.0,68,0.00,,,0.00,Wunderground PWS Mod,2013-02-16 10:00:00,
2013-02-16 05:05:00,41.3,31.5,29.87,North,0,2.0,8.0,68,0.00,,,0.00,Wunderground PWS Mod,2013-02-16 10:05:00,
2013-02-16 05:10:00,41.3,31.5,29.87,North,0,2.0,8.0,68,0.00,,,0.00,Wunderground PWS Mod,2013-02-16 10:10:00,
2013-02-16 05:15:00,41.2,31.8,29.87,SSE,150,2.0,7.0,69,0.00,,,0.00,Wunderground PWS Mod,2013-02-16 10:15:00,
2013-02-16 05:20:00,41.2,31.8,29.87,SSE,150,2.0,7.0,69,0.00,,,0.00,Wunderground PWS Mod,2013-02-16 10:20:00,
2013-02-16 05:25:00,41.2,31.8,29.87,SSE,150,2.0,7.0,69,0.00,,,0.00,Wunderground PWS Mod,2013-02-16 10:25:00,
2013-02-16 05:30:00,41.2,31.8,29.87,SSE,150,2.0,7.0,69,0.00,,,0.00,Wunderground PWS Mod,2013-02-16 10:30:00,
2013-02-16 05:35:00,41.2,31.8,29.87,SSE,150,2.0,7.0,69,0.00,,,0.00,Wunderground PWS Mod,2013-02-16 10:35:00,
2013-02-16 05:40:00,41.2,31.8,29.87,SSE,150,2.0,7.0,69,0.00,,,0.00,Wunderground PWS Mod,2013-02-16 10:40:00,
2013-02-16 05:45:00,40.6,31.6,29.87,SSE,150,3.0,13.0,70,0.00,,,0.00,Wunderground PWS Mod,2013-02-16 10:45:00,
2013-02-16 05:50:00,40.6,31.6,29.87,SSE,150,3.0,13.0,70,0.00,,,0.00,Wunderground PWS Mod,2013-02-16 10:50:00,
2013-02-16 05:55:00,40.6,31.6,29.87,SSE,150,3.0,13.0,70,0.00,,,0.00,Wunderground PWS Mod,2013-02-16 10:55:00,
2013-02-16 06:00:00,40.6,31.6,29.87,SSE,150,3.0,13.0,70,0.00,,,0.00,Wunderground PWS Mod,2013-02-16 11:00:00,
2013-02-16 06:05:00,40.6,31.6,29.87,SSE,150,3.0,13.0,70,0.00,,,0.00,Wunderground PWS Mod,2013-02-16 11:05:00,
2013-02-16 06:10:00,40.6,31.6,29.87,SSE,150,3.0,13.0,70,0.00,,,0.00,Wunderground PWS Mod,2013-02-16 11:10:00,
2013-02-16 06:15:00,38.8,32.2,29.89,SSE,150,3.0,12.0,77,0.00,,,0.00,Wunderground PWS Mod,2013-02-16 11:15:00,
2013-02-16 06:20:00,38.8,32.2,29.89,SSE,150,3.0,12.0,77,0.00,,,0.00,Wunderground PWS Mod,2013-02-16 11:20:00,
2013-02-16 06:25:00,38.8,32.2,29.89,SSE,150,3.0,12.0,77,0.00,,,0.00,Wunderground PWS Mod,2013-02-16 11:25:00,
2013-02-16 06:30:00,38.8,32.2,29.89,SSE,150,3.0,12.0,77,0.00,,,0.00,Wunderground PWS Mod,2013-02-16 11:30:00,
2013-02-16 06:35:00,38.8,32.2,29.89,SSE,150,3.0,12.0,77,0.00,,,0.15,Wunderground PWS Mod,2013-02-16 11:35:00,
2013-02-16 06:40:00,38.8,32.2,29.89,SSE,150,3.0,12.0,77,0.00,,,0.15,Wunderground PWS Mod,2013-02-16 11:40:00,
2013-02-16 06:45:00,36.8,32.7,29.89,SSE,150,4.0,12.0,85,0.03,,,0.15,Wunderground PWS Mod,2013-02-16 11:45:00,
2013-02-16 06:50:00,36.8,32.7,29.89,SSE,150,4.0,12.0,85,0.03,,,0.15,Wunderground PWS Mod,2013-02-16 11:50:00,
2013-02-16 06:52:00,37.2,32.8,29.90,NNW,340,5.0,12.0,84,0.06,,,0.02,Wunderground PWS Mod,2013-02-16 11:52:00,
2013-02-16 06:55:00,36.8,32.7,29.89,SSE,150,4.0,12.0,85,0.03,,,0.15,Wunderground PWS Mod,2013-02-16 11:55:00,
2013-02-16 06:59:00,36.6,32.8,29.89,North,5,5.0,12.0,86,0.09,,,0.03,Wunderground PWS Mod,2013-02-16 11:59:00,
2013-02-16 07:00:00,36.8,32.7,29.89,SSE,150,4.0,12.0,85,0.03,,,0.15,Wunderground PWS Mod,2013-02-16 12:00:00,
2013-02-16 07:09:00,35.9,32.4,29.89,North,5,2.0,12.0,87,0.07,,,0.04,Wunderground PWS Mod,2013-02-16 12:09:00,
2013-02-16 07:10:00,36.8,32.7,29.89,SSE,150,4.0,12.0,85,0.03,,,0.15,Wunderground PWS Mod,2013-02-16 12:10:00,
2013-02-16 07:14:00,35.8,32.6,29.90,North,5,2.0,12.0,88,0.07,,,0.04,Wunderground PWS Mod,2013-02-16 12:14:00,
2013-02-16 07:15:00,35.5,33.1,29.89,North,0,2.0,7.0,91,0.04,,,0.15,Wunderground PWS Mod,2013-02-16 12:15:00,
2013-02-16 07:19:00,35.5,32.6,29.90,North,5,1.0,12.0,89,0.04,,,0.04,Wunderground PWS Mod,2013-02-16 12:19:00,
2013-02-16 07:20:00,35.5,33.1,29.89,North,0,2.0,7.0,91,0.04,,,0.15,Wunderground PWS Mod,2013-02-16 12:20:00,
2013-02-16 07:25:00,35.5,33.1,29.89,North,0,2.0,7.0,91,0.04,,,0.15,Wunderground PWS Mod,2013-02-16 12:25:00,
2013-02-16 07:29:00,35.5,33.1,29.89,North,355,1.0,12.0,91,0.00,,,0.04,Wunderground PWS Mod,2013-02-16 12:29:00,
2013-02-16 07:30:00,35.5,33.1,29.89,North,0,2.0,7.0,91,0.04,,,0.15,Wunderground PWS Mod,2013-02-16 12:30:00,
2013-02-16 07:34:00,35.5,33.1,29.89,North,355,3.0,12.0,91,0.00,,,0.04,Wunderground PWS Mod,2013-02-16 12:34:00,
2013-02-16 07:35:00,35.5,33.1,29.89,North,0,2.0,7.0,91,0.04,,,0.15,Wunderground PWS Mod,2013-02-16 12:35:00,
2013-02-16 07:39:00,35.5,33.4,29.89,NNW,331,0.0,12.0,92,0.00,,,0.04,Wunderground PWS Mod,2013-02-16 12:39:00,
2013-02-16 07:40:00,35.5,33.1,29.89,North,0,2.0,7.0,91,0.04,,,0.15,Wunderground PWS Mod,2013-02-16 12:40:00,
2013-02-16 07:44:00,35.5,33.4,29.89,NW,319,2.0,12.0,92,0.00,,,0.04,Wunderground PWS Mod,2013-02-16 12:44:00,
2013-02-16 07:45:00,35.5,33.7,29.89,North,0,2.0,9.0,93,0.02,,,0.15,Wunderground PWS Mod,2013-02-16 12:45:00,
2013-02-16 07:50:00,35.5,33.7,29.89,North,0,2.0,9.0,93,0.02,,,0.15,Wunderground PWS Mod,2013-02-16 12:50:00,
2013-02-16 07:54:00,35.5,33.7,29.89,NNE,23,0.0,12.0,93,0.00,,,0.05,Wunderground PWS Mod,2013-02-16 12:54:00,
2013-02-16 07:55:00,35.5,33.7,29.89,North,0,2.0,9.0,93,0.02,,,0.15,Wunderground PWS Mod,2013-02-16 12:55:00,
2013-02-16 07:59:00,35.5,33.7,29.89,North,11,0.0,12.0,93,0.00,,,0.05,Wunderground PWS Mod,2013-02-16 12:59:00,
2013-02-16 08:00:00,35.5,33.7,29.89,North,0,2.0,9.0,93,0.02,,,0.15,Wunderground PWS Mod,2013-02-16 13:00:00,
2013-02-16 08:04:00,35.5,33.7,29.89,NNW,346,4.0,12.0,93,0.00,,,0.05,Wunderground PWS Mod,2013-02-16 13:04:00,
2013-02-16 08:05:00,35.5,33.7,29.89,North,0,2.0,9.0,93,0.02,,,0.15,Wunderground PWS Mod,2013-02-16 13:05:00,
2013-02-16 08:09:00,35.3,33.5,29.89,NNE,15,3.0,12.0,93,0.00,,,0.05,Wunderground PWS Mod,2013-02-16 13:09:00,
2013-02-16 08:10:00,35.5,33.7,29.89,North,0,2.0,9.0,93,0.02,,,0.15,Wunderground PWS Mod,2013-02-16 13:10:00,
2013-02-16 08:14:00,35.3,33.5,29.89,NNE,19,1.0,12.0,93,0.00,,,0.05,Wunderground PWS Mod,2013-02-16 13:14:00,
2013-02-16 08:15:00,35.3,33.5,29.89,North,10,2.0,10.0,93,0.02,,,0.15,Wunderground PWS Mod,2013-02-16 13:15:00,
2013-02-16 08:19:00,35.3,33.5,29.89,NNW,347,2.0,12.0,93,0.00,,,0.05,Wunderground PWS Mod,2013-02-16 13:19:00,
2013-02-16 08:20:00,35.3,33.5,29.89,North,10,2.0,10.0,93,0.02,,,0.15,Wunderground PWS Mod,2013-02-16 13:20:00,
2013-02-16 08:24:00,35.3,33.5,29.89,NNW,336,0.0,12.0,93,0.00,,,0.05,Wunderground PWS Mod,2013-02-16 13:24:00,
2013-02-16 08:25:00,35.3,33.5,29.89,North,10,2.0,10.0,93,0.02,,,0.15,Wunderground PWS Mod,2013-02-16 13:25:00,
2013-02-16 08:29:00,35.3,33.5,29.89,North,349,2.0,12.0,93,0.00,,,0.06,Wunderground PWS Mod,2013-02-16 13:29:00,
2013-02-16 08:30:00,35.3,33.5,29.89,North,10,2.0,10.0,93,0.02,,,0.15,Wunderground PWS Mod,2013-02-16 13:30:00,
2013-02-16 08:34:00,35.3,33.5,29.89,NNW,343,0.0,12.0,93,0.00,,,0.06,Wunderground PWS Mod,2013-02-16 13:34:00,
2013-02-16 08:35:00,35.3,33.5,29.89,North,10,2.0,10.0,93,0.02,,,0.15,Wunderground PWS Mod,2013-02-16 13:35:00,
2013-02-16 08:40:00,35.3,33.5,29.89,North,10,2.0,10.0,93,0.02,,,0.15,Wunderground PWS Mod,2013-02-16 13:40:00,
2013-02-16 08:44:00,35.3,33.5,29.89,NE,40,0.0,12.0,93,0.00,,,0.06,Wunderground PWS Mod,2013-02-16 13:44:00,
2013-02-16 08:45:00,35.2,33.4,29.89,North,0,1.0,7.0,93,0.01,,,0.15,Wunderground PWS Mod,2013-02-16 13:45:00,
2013-02-16 08:50:00,35.2,33.4,29.89,North,0,1.0,7.0,93,0.01,,,0.15,Wunderground PWS Mod,2013-02-16 13:50:00,
2013-02-16 08:54:00,35.2,33.4,29.89,North,349,0.0,12.0,93,0.00,,,0.06,Wunderground PWS Mod,2013-02-16 13:54:00,
2013-02-16 08:55:00,35.2,33.4,29.89,North,0,1.0,7.0,93,0.01,,,0.15,Wunderground PWS Mod,2013-02-16 13:55:00,
2013-02-16 09:00:00,35.2,33.4,29.89,North,0,1.0,7.0,93,0.01,,,0.15,Wunderground PWS Mod,2013-02-16 14:00:00,
2013-02-16 09:04:00,35.0,33.2,29.89,ESE,104,1.0,12.0,93,0.00,,,0.06,Wunderground PWS Mod,2013-02-16 14:04:00,
2013-02-16 09:05:00,35.2,33.4,29.89,North,0,1.0,7.0,93,0.01,,,0.15,Wunderground PWS Mod,2013-02-16 14:05:00,
2013-02-16 09:10:00,35.2,33.4,29.89,North,0,1.0,7.0,93,0.01,,,0.15,Wunderground PWS Mod,2013-02-16 14:10:00,
2013-02-16 09:14:00,34.7,32.9,29.90,NNW,344,0.0,12.0,93,0.00,,,0.07,Wunderground PWS Mod,2013-02-16 14:14:00,
2013-02-16 09:15:00,34.1,32.6,29.90,SSE,150,2.0,7.0,94,0.02,,,0.15,Wunderground PWS Mod,2013-02-16 14:15:00,
2013-02-16 09:19:00,34.4,32.6,29.90,North,355,3.0,12.0,93,0.06,,,0.08,Wunderground PWS Mod,2013-02-16 14:19:00,
2013-02-16 09:20:00,34.1,32.6,29.90,SSE,150,2.0,7.0,94,0.02,,,0.15,Wunderground PWS Mod,2013-02-16 14:20:00,
2013-02-16 09:25:00,34.1,32.6,29.90,SSE,150,2.0,7.0,94,0.02,,,0.15,Wunderground PWS Mod,2013-02-16 14:25:00,
2013-02-16 09:29:00,34.1,32.6,29.90,NNW,337,3.0,12.0,94,0.04,,,0.08,Wunderground PWS Mod,2013-02-16 14:29:00,
2013-02-16 09:30:00,34.1,32.6,29.90,SSE,150,2.0,7.0,94,0.02,,,0.15,Wunderground PWS Mod,2013-02-16 14:30:00,
2013-02-16 09:35:00,34.1,32.6,29.90,SSE,150,2.0,7.0,94,0.02,,,0.15,Wunderground PWS Mod,2013-02-16 14:35:00,
2013-02-16 09:39:00,33.8,32.3,29.90,North,360,1.0,12.0,94,0.04,,,0.09,Wunderground PWS Mod,2013-02-16 14:39:00,
2013-02-16 09:45:00,33.4,32.1,29.90,SSE,150,2.0,6.0,95,0.04,,,0.15,Wunderground PWS Mod,2013-02-16 14:45:00,
2013-02-16 09:49:00,33.5,32.0,29.91,NNW,341,0.0,12.0,94,0.00,,,0.09,Wunderground PWS Mod,2013-02-16 14:49:00,
2013-02-16 09:50:00,33.4,32.1,29.90,SSE,150,2.0,6.0,95,0.04,,,0.15,Wunderground PWS Mod,2013-02-16 14:50:00,
2013-02-16 09:55:00,33.4,32.1,29.90,SSE,150,2.0,6.0,95,0.04,,,0.15,Wunderground PWS Mod,2013-02-16 14:55:00,
2013-02-16 09:59:00,33.4,32.1,29.90,NNW,346,0.0,12.0,95,0.00,,,0.10,Wunderground PWS Mod,2013-02-16 14:59:00,
2013-02-16 10:00:00,33.4,32.1,29.90,SSE,150,2.0,6.0,95,0.04,,,0.15,Wunderground PWS Mod,2013-02-16 15:00:00,
2013-02-16 10:05:00,33.4,32.1,29.90,SSE,150,2.0,6.0,95,0.04,,,0.15,Wunderground PWS Mod,2013-02-16 15:05:00,
2013-02-16 10:09:00,33.5,32.2,29.90,NNW,346,2.0,12.0,95,0.00,,,0.10,Wunderground PWS Mod,2013-02-16 15:09:00,
2013-02-16 10:10:00,33.4,32.1,29.90,SSE,150,2.0,6.0,95,0.04,,,0.15,Wunderground PWS Mod,2013-02-16 15:10:00,
2013-02-16 10:15:00,34.0,32.7,29.89,SSE,150,0.0,3.0,95,0.04,,,0.15,Wunderground PWS Mod,2013-02-16 15:15:00,
2013-02-16 10:19:00,33.7,32.4,29.89,NNW,346,0.0,12.0,95,0.04,,,0.11,Wunderground PWS Mod,2013-02-16 15:19:00,
2013-02-16 10:20:00,34.0,32.7,29.89,SSE,150,0.0,3.0,95,0.04,,,0.15,Wunderground PWS Mod,2013-02-16 15:20:00,
2013-02-16 10:24:00,33.8,32.5,29.89,NNE,21,1.0,12.0,95,0.05,,,0.12,Wunderground PWS Mod,2013-02-16 15:24:00,
2013-02-16 10:25:00,34.0,32.7,29.89,SSE,150,0.0,3.0,95,0.04,,,0.15,Wunderground PWS Mod,2013-02-16 15:25:00,
2013-02-16 10:30:00,34.0,32.7,29.89,SSE,150,0.0,3.0,95,0.04,,,0.15,Wunderground PWS Mod,2013-02-16 15:30:00,
2013-02-16 10:34:00,34.3,33.3,29.89,NNE,21,0.0,12.0,96,0.05,,,0.12,Wunderground PWS Mod,2013-02-16 15:34:00,
2013-02-16 10:35:00,34.0,32.7,29.89,SSE,150,0.0,3.0,95,0.04,,,0.15,Wunderground PWS Mod,2013-02-16 15:35:00,
2013-02-16 10:40:00,34.0,32.7,29.89,SSE,150,0.0,3.0,95,0.04,,,0.15,Wunderground PWS Mod,2013-02-16 15:40:00,
2013-02-16 10:44:00,34.6,33.6,29.89,NNE,17,0.0,12.0,96,0.00,,,0.12,Wunderground PWS Mod,2013-02-16 15:44:00,
2013-02-16 10:45:00,34.9,33.6,29.88,North,10,0.0,4.0,95,0.02,,,0.15,Wunderground PWS Mod,2013-02-16 15:45:00,
2013-02-16 10:49:00,34.7,33.7,29.89,NNE,18,0.0,12.0,96,0.00,,,0.12,Wunderground PWS Mod,2013-02-16 15:49:00,
2013-02-16 10:50:00,34.9,33.6,29.88,North,10,0.0,4.0,95,0.02,,,0.15,Wunderground PWS Mod,2013-02-16 15:50:00,
2013-02-16 10:54:00,34.7,33.4,29.89,NNE,18,0.0,12.0,95,0.00,,,0.12,Wunderground PWS Mod,2013-02-16 15:54:00,
2013-02-16 10:55:00,34.9,33.6,29.88,North,10,0.0,4.0,95,0.02,,,0.15,Wunderground PWS Mod,2013-02-16 15:55:00,
2013-02-16 11:00:00,34.9,33.6,29.88,North,10,0.0,4.0,95,0.02,,,0.15,Wunderground PWS Mod,2013-02-16 16:00:00,
2013-02-16 11:04:00,34.7,33.4,29.88,NNE,18,0.0,12.0,95,0.00,,,0.12,Wunderground PWS Mod,2013-02-16 16:04:00,
2013-02-16 11:05:00,34.9,33.6,29.88,North,10,0.0,4.0,95,0.02,,,0.15,Wunderground PWS Mod,2013-02-16 16:05:00,
2013-02-16 11:10:00,34.9,33.6,29.88,North,10,0.0,4.0,95,0.02,,,0.15,Wunderground PWS Mod,2013-02-16 16:10:00,
2013-02-16 11:14:00,34.9,33.6,29.88,NNE,18,1.0,12.0,95,0.00,,,0.12,Wunderground PWS Mod,2013-02-16 16:14:00,
2013-02-16 11:15:00,35.0,33.7,29.88,North,10,0.0,4.0,95,0.01,,,0.15,Wunderground PWS Mod,2013-02-16 16:15:00,
2013-02-16 11:20:00,35.0,33.7,29.88,North,10,0.0,4.0,95,0.01,,,0.15,Wunderground PWS Mod,2013-02-16 16:20:00,
2013-02-16 11:24:00,34.9,33.6,29.88,NNE,18,0.0,12.0,95,0.00,,,0.13,Wunderground PWS Mod,2013-02-16 16:24:00,
2013-02-16 11:25:00,35.0,33.7,29.88,North,10,0.0,4.0,95,0.01,,,0.15,Wunderground PWS Mod,2013-02-16 16:25:00,
2013-02-16 11:29:00,35.0,33.7,29.88,NNE,18,0.0,12.0,95,0.00,,,0.13,Wunderground PWS Mod,2013-02-16 16:29:00,
2013-02-16 11:30:00,35.0,33.7,29.88,North,10,0.0,4.0,95,0.01,,,0.15,Wunderground PWS Mod,2013-02-16 16:30:00,
2013-02-16 11:35:00,35.0,33.7,29.88,North,10,0.0,4.0,95,0.01,,,0.15,Wunderground PWS Mod,2013-02-16 16:35:00,
2013-02-16 11:39:00,35.0,33.7,29.88,NNE,20,2.0,12.0,95,0.00,,,0.13,Wunderground PWS Mod,2013-02-16 16:39:00,
2013-02-16 11:40:00,35.0,33.7,29.88,North,10,0.0,4.0,95,0.01,,,0.15,Wunderground PWS Mod,2013-02-16 16:40:00,
2013-02-16 11:45:00,35.3,34.0,29.86,North,10,0.0,4.0,95,0.02,,,0.15,Wunderground PWS Mod,2013-02-16 16:45:00,
2013-02-16 11:49:00,35.2,33.9,29.87,NNE,20,0.0,12.0,95,0.00,,,0.14,Wunderground PWS Mod,2013-02-16 16:49:00,
2013-02-16 11:50:00,35.3,34.0,29.86,North,10,0.0,4.0,95,0.02,,,0.15,Wunderground PWS Mod,2013-02-16 16:50:00,
2013-02-16 11:54:00,35.3,34.0,29.87,NNE,20,1.0,12.0,95,0.00,,,0.14,Wunderground PWS Mod,2013-02-16 16:54:00,
2013-02-16 11:55:00,35.3,34.0,29.86,North,10,0.0,4.0,95,0.02,,,0.15,Wunderground PWS Mod,2013-02-16 16:55:00,
2013-02-16 11:59:00,35.3,34.0,29.86,NNE,17,0.0,12.0,95,0.00,,,0.14,Wunderground PWS Mod,2013-02-16 16:59:00,
2013-02-16 12:00:00,35.3,34.0,29.86,North,10,0.0,4.0,95,0.02,,,0.15,Wunderground PWS Mod,2013-02-16 17:00:00,
2013-02-16 12:05:00,35.3,34.0,29.86,North,10,0.0,4.0,95,0.02,,,0.15,Wunderground PWS Mod,2013-02-16 17:05:00,
2013-02-16 12:09:00,35.3,34.0,29.86,NNE,17,0.0,12.0,95,0.00,,,0.14,Wunderground PWS Mod,2013-02-16 17:09:00,
2013-02-16 12:10:00,35.3,34.0,29.86,North,10,0.0,4.0,95,0.02,,,0.15,Wunderground PWS Mod,2013-02-16 17:10:00,
2013-02-16 12:15:00,35.5,34.2,29.85,North,10,0.0,3.0,95,0.01,,,0.15,Wunderground PWS Mod,2013-02-16 17:15:00,
2013-02-16 12:19:00,35.3,34.0,29.86,NNE,17,0.0,12.0,95,0.00,,,0.14,Wunderground PWS Mod,2013-02-16 17:19:00,
2013-02-16 12:20:00,35.5,34.2,29.85,North,10,0.0,3.0,95,0.01,,,0.15,Wunderground PWS Mod,2013-02-16 17:20:00,
2013-02-16 12:25:00,35.5,34.2,29.85,North,10,0.0,3.0,95,0.01,,,0.15,Wunderground PWS Mod,2013-02-16 17:25:00,
2013-02-16 12:29:00,35.5,34.2,29.85,NNE,17,0.0,12.0,95,0.00,,,0.14,Wunderground PWS Mod,2013-02-16 17:29:00,
2013-02-16 12:30:00,35.5,34.2,29.85,North,10,0.0,3.0,95,0.01,,,0.15,Wunderground PWS Mod,2013-02-16 17:30:00,
2013-02-16 12:35:00,35.5,34.2,29.85,North,10,0.0,3.0,95,0.01,,,0.15,Wunderground PWS Mod,2013-02-16 17:35:00,
2013-02-16 12:39:00,35.5,34.2,29.85,NNE,17,0.0,12.0,95,0.00,,,0.14,Wunderground PWS Mod,2013-02-16 17:39:00,
2013-02-16 12:40:00,35.5,34.2,29.85,North,10,0.0,3.0,95,0.01,,,0.15,Wunderground PWS Mod,2013-02-16 17:40:00,
2013-02-16 12:45:00,35.9,34.3,29.84,North,10,1.0,3.0,94,0.01,,,0.15,Wunderground PWS Mod,2013-02-16 17:45:00,
2013-02-16 12:49:00,35.8,34.2,29.83,NNE,17,0.0,12.0,94,0.00,,,0.15,Wunderground PWS Mod,2013-02-16 17:49:00,
2013-02-16 12:50:00,35.9,34.3,29.84,North,10,1.0,3.0,94,0.01,,,0.15,Wunderground PWS Mod,2013-02-16 17:50:00,
2013-02-16 12:55:00,35.9,34.3,29.84,North,10,1.0,3.0,94,0.01,,,0.15,Wunderground PWS Mod,2013-02-16 17:55:00,
2013-02-16 12:59:00,35.9,34.3,29.84,NNE,17,0.0,12.0,94,0.00,,,0.15,Wunderground PWS Mod,2013-02-16 17:59:00,
2013-02-16 13:00:00,35.9,34.3,29.84,North,10,1.0,3.0,94,0.01,,,0.15,Wunderground PWS Mod,2013-02-16 18:00:00,
2013-02-16 13:04:00,35.9,34.3,29.84,NNE,17,1.0,12.0,94,0.00,,,0.15,Wunderground PWS Mod,2013-02-16 18:04:00,
2013-02-16 13:05:00,35.9,34.3,29.84,North,10,1.0,3.0,94,0.01,,,0.15,Wunderground PWS Mod,2013-02-16 18:05:00,
2013-02-16 13:10:00,35.9,34.3,29.84,North,10,1.0,3.0,94,0.01,,,0.15,Wunderground PWS Mod,2013-02-16 18:10:00,
2013-02-16 13:14:00,35.8,34.2,29.82,NNE,17,2.0,12.0,94,0.00,,,0.15,Wunderground PWS Mod,2013-02-16 18:14:00,
2013-02-16 13:15:00,35.9,34.1,29.81,North,10,1.0,3.0,93,0.01,,,0.15,Wunderground PWS Mod,2013-02-16 18:15:00,
2013-02-16 13:20:00,35.9,34.1,29.81,North,10,1.0,3.0,93,0.01,,,0.15,Wunderground PWS Mod,2013-02-16 18:20:00,
2013-02-16 13:24:00,35.9,34.1,29.82,NNE,17,0.0,12.0,93,0.00,,,0.15,Wunderground PWS Mod,2013-02-16 18:24:00,
2013-02-16 13:25:00,35.9,34.1,29.81,North,10,1.0,3.0,93,0.01,,,0.15,Wunderground PWS Mod,2013-02-16 18:25:00,
2013-02-16 13:30:00,35.9,34.1,29.81,North,10,1.0,3.0,93,0.01,,,0.15,Wunderground PWS Mod,2013-02-16 18:30:00,
2013-02-16 13:34:00,35.9,34.1,29.81,NNE,19,0.0,12.0,93,0.00,,,0.15,Wunderground PWS Mod,2013-02-16 18:34:00,
2013-02-16 13:35:00,35.9,34.1,29.81,North,10,1.0,3.0,93,0.01,,,0.15,Wunderground PWS Mod,2013-02-16 18:35:00,
2013-02-16 13:40:00,35.9,34.1,29.81,North,10,1.0,3.0,93,0.01,,,0.15,Wunderground PWS Mod,2013-02-16 18:40:00,
2013-02-16 13:44:00,36.0,33.9,29.81,NNE,19,0.0,12.0,92,0.00,,,0.15,Wunderground PWS Mod,2013-02-16 18:44:00,
2013-02-16 13:45:00,36.3,34.2,29.80,North,10,0.0,4.0,92,0.00,,,0.15,Wunderground PWS Mod,2013-02-16 18:45:00,
2013-02-16 13:50:00,36.3,34.2,29.80,North,10,0.0,4.0,92,0.00,,,0.15,Wunderground PWS Mod,2013-02-16 18:50:00,
2013-02-16 13:54:00,36.3,34.2,29.81,NNE,19,0.0,12.0,92,0.00,,,0.15,Wunderground PWS Mod,2013-02-16 18:54:00,
2013-02-16 13:55:00,36.3,34.2,29.80,North,10,0.0,4.0,92,0.00,,,0.15,Wunderground PWS Mod,2013-02-16 18:55:00,
2013-02-16 14:00:00,36.3,34.2,29.80,North,10,0.0,4.0,92,0.00,,,0.15,Wunderground PWS Mod,2013-02-16 19:00:00,
2013-02-16 14:04:00,36.3,34.2,29.80,NNE,19,0.0,12.0,92,0.00,,,0.15,Wunderground PWS Mod,2013-02-16 19:04:00,
2013-02-16 14:05:00,36.3,34.2,29.80,North,10,0.0,4.0,92,0.00,,,0.15,Wunderground PWS Mod,2013-02-16 19:05:00,
2013-02-16 14:10:00,36.3,34.2,29.80,North,10,0.0,4.0,92,0.00,,,0.15,Wunderground PWS Mod,2013-02-16 19:10:00,
2013-02-16 14:14:00,36.6,34.5,29.79,NNE,19,0.0,12.0,92,0.00,,,0.15,Wunderground PWS Mod,2013-02-16 19:14:00,
2013-02-16 14:15:00,36.6,33.9,29.78,North,10,0.0,3.0,90,0.00,,,0.15,Wunderground PWS Mod,2013-02-16 19:15:00,
2013-02-16 14:19:00,36.8,34.4,29.79,NNE,19,0.0,12.0,91,0.00,,,0.15,Wunderground PWS Mod,2013-02-16 19:19:00,
2013-02-16 14:20:00,36.6,33.9,29.78,North,10,0.0,3.0,90,0.00,,,0.15,Wunderground PWS Mod,2013-02-16 19:20:00,
2013-02-16 14:25:00,36.6,33.9,29.78,North,10,0.0,3.0,90,0.00,,,0.15,Wunderground PWS Mod,2013-02-16 19:25:00,
2013-02-16 14:29:00,36.5,33.8,29.78,NNE,19,0.0,12.0,90,0.00,,,0.15,Wunderground PWS Mod,2013-02-16 19:29:00,
2013-02-16 14:30:00,36.6,33.9,29.78,North,10,0.0,3.0,90,0.00,,,0.15,Wunderground PWS Mod,2013-02-16 19:30:00,
2013-02-16 14:35:00,36.6,33.9,29.78,North,10,0.0,3.0,90,0.00,,,0.15,Wunderground PWS Mod,2013-02-16 19:35:00,
2013-02-16 14:39:00,36.6,33.9,29.78,NNE,19,1.0,12.0,90,0.00,,,0.15,Wunderground PWS Mod,2013-02-16 19:39:00,
2013-02-16 14:40:00,36.6,33.9,29.78,North,10,0.0,3.0,90,0.00,,,0.15,Wunderground PWS Mod,2013-02-16 19:40:00,
2013-02-16 14:45:00,36.6,33.7,29.78,North,10,0.0,4.0,89,0.00,,,0.15,Wunderground PWS Mod,2013-02-16 19:45:00,
2013-02-16 14:49:00,36.5,33.8,29.78,NNE,22,0.0,12.0,90,0.00,,,0.15,Wunderground PWS Mod,2013-02-16 19:49:00,
2013-02-16 14:50:00,36.6,33.7,29.78,North,10,0.0,4.0,89,0.00,,,0.15,Wunderground PWS Mod,2013-02-16 19:50:00,
2013-02-16 14:54:00,36.6,33.9,29.78,NNE,22,0.0,12.0,90,0.00,,,0.15,Wunderground PWS Mod,2013-02-16 19:54:00,
2013-02-16 14:55:00,36.6,33.7,29.78,North,10,0.0,4.0,89,0.00,,,0.15,Wunderground PWS Mod,2013-02-16 19:55:00,
2013-02-16 15:00:00,36.6,33.7,29.78,North,10,0.0,4.0,89,0.00,,,0.15,Wunderground PWS Mod,2013-02-16 20:00:00,
2013-02-16 15:04:00,36.9,34.0,29.78,NNE,22,2.0,12.0,89,0.00,,,0.15,Wunderground PWS Mod,2013-02-16 20:04:00,
2013-02-16 15:05:00,36.6,33.7,29.78,North,10,0.0,4.0,89,0.00,,,0.15,Wunderground PWS Mod,2013-02-16 20:05:00,
2013-02-16 15:10:00,36.6,33.7,29.78,North,10,0.0,4.0,89,0.00,,,0.15,Wunderground PWS Mod,2013-02-16 20:10:00,
2013-02-16 15:14:00,37.6,34.4,29.78,NNE,22,1.0,12.0,88,0.00,,,0.15,Wunderground PWS Mod,2013-02-16 20:14:00,
2013-02-16 15:15:00,38.5,34.7,29.77,North,10,1.0,4.0,86,0.00,,,0.15,Wunderground PWS Mod,2013-02-16 20:15:00,
2013-02-16 15:20:00,38.5,34.7,29.77,North,10,1.0,4.0,86,0.00,,,0.15,Wunderground PWS Mod,2013-02-16 20:20:00,
2013-02-16 15:23:00,38.3,34.5,29.78,NNE,23,1.0,12.0,86,0.00,,,0.15,Wunderground PWS Mod,2013-02-16 20:23:00,
2013-02-16 15:25:00,38.5,34.7,29.77,North,10,1.0,4.0,86,0.00,,,0.15,Wunderground PWS Mod,2013-02-16 20:25:00,
2013-02-16 15:29:00,38.5,34.7,29.77,NNE,23,0.0,12.0,86,0.00,,,0.15,Wunderground PWS Mod,2013-02-16 20:29:00,
2013-02-16 15:30:00,38.5,34.7,29.77,North,10,1.0,4.0,86,0.00,,,0.15,Wunderground PWS Mod,2013-02-16 20:30:00,
2013-02-16 15:35:00,38.5,34.7,29.77,North,10,1.0,4.0,86,0.00,,,0.15,Wunderground PWS Mod,2013-02-16 20:35:00,
2013-02-16 15:39:00,38.5,33.5,29.77,NE,37,1.0,12.0,82,0.00,,,0.15,Wunderground PWS Mod,2013-02-16 20:39:00,
2013-02-16 15:40:00,38.5,34.7,29.77,North,10,1.0,4.0,86,0.00,,,0.15,Wunderground PWS Mod,2013-02-16 20:40:00,
2013-02-16 15:45:00,37.0,31.4,29.77,NNE,30,2.0,6.0,80,0.00,,,0.15,Wunderground PWS Mod,2013-02-16 20:45:00,
2013-02-16 15:49:00,37.9,32.9,29.77,NNW,340,0.0,12.0,82,0.00,,,0.15,Wunderground PWS Mod,2013-02-16 20:49:00,
2013-02-16 15:50:00,37.0,31.4,29.77,NNE,30,2.0,6.0,80,0.00,,,0.15,Wunderground PWS Mod,2013-02-16 20:50:00,
2013-02-16 15:55:00,37.0,31.4,29.77,NNE,30,2.0,6.0,80,0.00,,,0.15,Wunderground PWS Mod,2013-02-16 20:55:00,
2013-02-16 15:58:00,37.0,31.4,29.77,ENE,72,2.0,12.0,80,0.00,,,0.15,Wunderground PWS Mod,2013-02-16 20:58:00,
2013-02-16 16:00:00,37.0,31.4,29.77,NNE,30,2.0,6.0,80,0.00,,,0.15,Wunderground PWS Mod,2013-02-16 21:00:00,
2013-02-16 16:04:00,36.9,31.9,29.77,ENE,76,2.0,12.0,82,0.00,,,0.15,Wunderground PWS Mod,2013-02-16 21:04:00,
2013-02-16 16:05:00,37.0,31.4,29.77,NNE,30,2.0,6.0,80,0.00,,,0.15,Wunderground PWS Mod,2013-02-16 21:05:00,
2013-02-16 16:10:00,37.0,31.4,29.77,NNE,30,2.0,6.0,80,0.00,,,0.15,Wunderground PWS Mod,2013-02-16 21:10:00,
2013-02-16 16:14:00,36.9,32.2,29.78,NE,53,3.0,12.0,83,0.00,,,0.15,Wunderground PWS Mod,2013-02-16 21:14:00,
2013-02-16 16:15:00,36.8,32.4,29.78,NNE,30,1.0,4.0,84,0.00,,,0.15,Wunderground PWS Mod,2013-02-16 21:15:00,
2013-02-16 16:20:00,36.8,32.4,29.78,NNE,30,1.0,4.0,84,0.00,,,0.15,Wunderground PWS Mod,2013-02-16 21:20:00,
2013-02-16 16:24:00,36.8,32.1,29.78,NNE,25,0.0,12.0,83,0.00,,,0.15,Wunderground PWS Mod,2013-02-16 21:24:00,
2013-02-16 16:25:00,36.8,32.4,29.78,NNE,30,1.0,4.0,84,0.00,,,0.15,Wunderground PWS Mod,2013-02-16 21:25:00,
2013-02-16 16:30:00,36.8,32.4,29.78,NNE,30,1.0,4.0,84,0.00,,,0.15,Wunderground PWS Mod,2013-02-16 21:30:00,
2013-02-16 16:33:00,36.8,32.4,29.78,ENE,71,0.0,12.0,84,0.00,,,0.15,Wunderground PWS Mod,2013-02-16 21:33:00,
2013-02-16 16:35:00,36.8,32.4,29.78,NNE,30,1.0,4.0,84,0.00,,,0.15,Wunderground PWS Mod,2013-02-16 21:35:00,
2013-02-16 16:39:00,36.9,32.5,29.78,ENE,71,0.0,12.0,84,0.00,,,0.15,Wunderground PWS Mod,2013-02-16 21:39:00,
2013-02-16 16:40:00,36.8,32.4,29.78,NNE,30,1.0,4.0,84,0.00,,,0.15,Wunderground PWS Mod,2013-02-16 21:40:00,
2013-02-16 16:45:00,36.9,32.2,29.78,NNE,30,0.0,3.0,83,0.00,,,0.15,Wunderground PWS Mod,2013-02-16 21:45:00,
2013-02-16 16:49:00,37.0,32.6,29.78,ENE,71,2.0,12.0,84,0.00,,,0.15,Wunderground PWS Mod,2013-02-16 21:49:00,
2013-02-16 16:50:00,36.9,32.2,29.78,NNE,30,0.0,3.0,83,0.00,,,0.15,Wunderground PWS Mod,2013-02-16 21:50:00,
2013-02-16 16:55:00,36.9,32.2,29.78,NNE,30,0.0,3.0,83,0.00,,,0.15,Wunderground PWS Mod,2013-02-16 21:55:00,
2013-02-16 16:59:00,36.9,32.2,29.78,ENE,63,0.0,12.0,83,0.00,,,0.15,Wunderground PWS Mod,2013-02-16 21:59:00,
2013-02-16 17:00:00,36.9,32.2,29.78,NNE,30,0.0,3.0,83,0.00,,,0.15,Wunderground PWS Mod,2013-02-16 22:00:00,
2013-02-16 17:05:00,36.9,32.2,29.78,NNE,30,0.0,3.0,83,0.00,,,0.15,Wunderground PWS Mod,2013-02-16 22:05:00,
2013-02-16 17:08:00,36.8,32.1,29.78,NNE,29,3.0,12.0,83,0.00,,,0.15,Wunderground PWS Mod,2013-02-16 22:08:00,
2013-02-16 17:10:00,36.9,32.2,29.78,NNE,30,0.0,3.0,83,0.00,,,0.15,Wunderground PWS Mod,2013-02-16 22:10:00,
2013-02-16 17:14:00,36.6,32.2,29.79,NNE,29,2.0,12.0,84,0.00,,,0.15,Wunderground PWS Mod,2013-02-16 22:14:00,
2013-02-16 17:15:00,36.3,31.9,29.80,North,10,2.0,10.0,84,0.00,,,0.15,Wunderground PWS Mod,2013-02-16 22:15:00,
2013-02-16 17:20:00,36.3,31.9,29.80,North,10,2.0,10.0,84,0.00,,,0.15,Wunderground PWS Mod,2013-02-16 22:20:00,
2013-02-16 17:24:00,36.6,32.2,29.79,NNW,338,8.0,12.0,84,0.00,,,0.15,Wunderground PWS Mod,2013-02-16 22:24:00,
2013-02-16 17:25:00,36.3,31.9,29.80,North,10,2.0,10.0,84,0.00,,,0.15,Wunderground PWS Mod,2013-02-16 22:25:00,
2013-02-16 17:30:00,36.3,31.9,29.80,North,10,2.0,10.0,84,0.00,,,0.15,Wunderground PWS Mod,2013-02-16 22:30:00,
2013-02-16 17:33:00,34.9,30.8,29.80,North,360,7.0,12.0,85,0.00,,,0.15,Wunderground PWS Mod,2013-02-16 22:33:00,
2013-02-16 17:35:00,36.3,31.9,29.80,North,10,2.0,10.0,84,0.00,,,0.15,Wunderground PWS Mod,2013-02-16 22:35:00,
2013-02-16 17:40:00,36.3,31.9,29.80,North,10,2.0,10.0,84,0.00,,,0.15,Wunderground PWS Mod,2013-02-16 22:40:00,
2013-02-16 17:44:00,32.8,30.2,29.81,NW,323,5.0,12.0,90,0.00,,,0.15,Wunderground PWS Mod,2013-02-16 22:44:00,
2013-02-16 17:45:00,31.9,30.1,29.81,SSE,150,5.0,16.0,93,0.00,,,0.15,Wunderground PWS Mod,2013-02-16 22:45:00,
2013-02-16 17:50:00,31.9,30.1,29.81,SSE,150,5.0,16.0,93,0.00,,,0.15,Wunderground PWS Mod,2013-02-16 22:50:00,
2013-02-16 17:54:00,32.1,30.0,29.81,NNW,339,2.0,12.0,92,0.00,,,0.15,Wunderground PWS Mod,2013-02-16 22:54:00,
2013-02-16 17:55:00,31.9,30.1,29.81,SSE,150,5.0,16.0,93,0.00,,,0.15,Wunderground PWS Mod,2013-02-16 22:55:00,
2013-02-16 18:00:00,31.9,30.1,29.81,SSE,150,5.0,16.0,93,0.00,,,0.15,Wunderground PWS Mod,2013-02-16 23:00:00,
2013-02-16 18:03:00,31.9,30.1,29.81,North,11,3.0,12.0,93,0.00,,,0.15,Wunderground PWS Mod,2013-02-16 23:03:00,
2013-02-16 18:05:00,31.9,30.1,29.81,SSE,150,5.0,16.0,93,0.00,,,0.15,Wunderground PWS Mod,2013-02-16 23:05:00,
2013-02-16 18:10:00,31.9,30.1,29.81,SSE,150,5.0,16.0,93,0.00,,,0.15,Wunderground PWS Mod,2013-02-16 23:10:00,
2013-02-16 18:13:00,31.8,30.3,29.82,North,5,2.0,12.0,94,0.00,,,0.15,Wunderground PWS Mod,2013-02-16 23:13:00,
2013-02-16 18:15:00,31.8,30.5,29.83,SSE,150,4.0,11.0,95,0.00,,,0.15,Wunderground PWS Mod,2013-02-16 23:15:00,
2013-02-16 18:19:00,31.8,30.5,29.82,NNW,340,3.0,12.0,95,0.00,,,0.15,Wunderground PWS Mod,2013-02-16 23:19:00,
2013-02-16 18:20:00,31.8,30.5,29.83,SSE,150,4.0,11.0,95,0.00,,,0.15,Wunderground PWS Mod,2013-02-16 23:20:00,
2013-02-16 18:25:00,31.8,30.5,29.83,SSE,150,4.0,11.0,95,0.00,,,0.15,Wunderground PWS Mod,2013-02-16 23:25:00,
2013-02-16 18:29:00,31.8,30.5,29.83,NW,324,2.0,12.0,95,0.00,,,0.15,Wunderground PWS Mod,2013-02-16 23:29:00,
2013-02-16 18:30:00,31.8,30.5,29.83,SSE,150,4.0,11.0,95,0.00,,,0.15,Wunderground PWS Mod,2013-02-16 23:30:00,
2013-02-16 18:35:00,31.8,30.5,29.83,SSE,150,4.0,11.0,95,0.00,,,0.15,Wunderground PWS Mod,2013-02-16 23:35:00,
2013-02-16 18:38:00,31.6,30.3,29.83,North,351,2.0,12.0,95,0.00,,,0.15,Wunderground PWS Mod,2013-02-16 23:38:00,
2013-02-16 18:40:00,31.8,30.5,29.83,SSE,150,4.0,11.0,95,0.00,,,0.15,Wunderground PWS Mod,2013-02-16 23:40:00,
2013-02-16 18:45:00,31.6,30.6,29.85,SSE,150,4.0,12.0,96,0.00,,,0.15,Wunderground PWS Mod,2013-02-16 23:45:00,
2013-02-16 18:49:00,31.6,30.3,29.84,NNW,335,5.0,12.0,95,0.00,,,0.15,Wunderground PWS Mod,2013-02-16 23:49:00,
2013-02-16 18:50:00,31.6,30.6,29.85,SSE,150,4.0,12.0,96,0.00,,,0.15,Wunderground PWS Mod,2013-02-16 23:50:00,
2013-02-16 18:55:00,31.6,30.6,29.85,SSE,150,4.0,12.0,96,0.00,,,0.15,Wunderground PWS Mod,2013-02-16 23:55:00,
2013-02-16 18:59:00,31.6,30.6,29.85,NNW,348,3.0,12.0,96,0.00,,,0.15,Wunderground PWS Mod,2013-02-16 23:59:00,
2013-02-16 19:00:00,31.6,30.6,29.85,SSE,150,4.0,12.0,96,0.00,,,0.15,Wunderground PWS Mod,2013-02-17 00:00:00,
2013-02-16 19:05:00,31.6,30.6,29.85,SSE,150,4.0,12.0,96,0.00,,,0.15,Wunderground PWS Mod,2013-02-17 00:05:00,
2013-02-16 19:08:00,31.5,30.5,29.85,NNW,331,3.0,12.0,96,0.00,,,0.15,Wunderground PWS Mod,2013-02-17 00:08:00,
2013-02-16 19:10:00,31.6,30.6,29.85,SSE,150,4.0,12.0,96,0.00,,,0.15,Wunderground PWS Mod,2013-02-17 00:10:00,
2013-02-16 19:15:00,31.3,30.3,29.86,SSE,150,3.0,10.0,96,0.00,,,0.15,Wunderground PWS Mod,2013-02-17 00:15:00,
2013-02-16 19:18:00,31.3,30.3,29.86,NNW,332,2.0,12.0,96,0.00,,,0.15,Wunderground PWS Mod,2013-02-17 00:18:00,
2013-02-16 19:20:00,31.3,30.3,29.86,SSE,150,3.0,10.0,96,0.00,,,0.15,Wunderground PWS Mod,2013-02-17 00:20:00,
2013-02-16 19:25:00,31.3,30.3,29.86,SSE,150,3.0,10.0,96,0.00,,,0.15,Wunderground PWS Mod,2013-02-17 00:25:00,
2013-02-16 19:29:00,31.2,30.2,29.86,NNW,345,3.0,12.0,96,0.00,,,0.15,Wunderground PWS Mod,2013-02-17 00:29:00,
2013-02-16 19:30:00,31.3,30.3,29.86,SSE,150,3.0,10.0,96,0.00,,,0.15,Wunderground PWS Mod,2013-02-17 00:30:00,
2013-02-16 19:35:00,31.3,30.3,29.86,SSE,150,3.0,10.0,96,0.00,,,0.15,Wunderground PWS Mod,2013-02-17 00:35:00,
2013-02-16 19:38:00,31.2,30.2,29.86,NW,313,6.0,12.0,96,0.00,,,0.15,Wunderground PWS Mod,2013-02-17 00:38:00,
2013-02-16 19:40:00,31.3,30.3,29.86,SSE,150,3.0,10.0,96,0.00,,,0.15,Wunderground PWS Mod,2013-02-17 00:40:00,
2013-02-16 19:45:00,30.4,28.9,29.88,SSE,150,4.0,16.0,94,0.00,,,0.15,Wunderground PWS Mod,2013-02-17 00:45:00,
2013-02-16 19:48:00,31.0,29.7,29.87,NNW,334,3.0,12.0,95,0.00,,,0.15,Wunderground PWS Mod,2013-02-17 00:48:00,
2013-02-16 19:50:00,30.4,28.9,29.88,SSE,150,4.0,16.0,94,0.00,,,0.15,Wunderground PWS Mod,2013-02-17 00:50:00,
2013-02-16 19:54:00,30.7,29.4,29.87,NW,325,11.0,12.0,95,0.00,,,0.15,Wunderground PWS Mod,2013-02-17 00:54:00,
2013-02-16 19:55:00,30.4,28.9,29.88,SSE,150,4.0,16.0,94,0.00,,,0.15,Wunderground PWS Mod,2013-02-17 00:55:00,
2013-02-16 20:00:00,30.4,28.9,29.88,SSE,150,4.0,16.0,94,0.00,,,0.15,Wunderground PWS Mod,2013-02-17 01:00:00,
2013-02-16 20:03:00,30.3,28.5,29.88,NW,324,7.0,12.0,93,0.00,,,0.15,Wunderground PWS Mod,2013-02-17 01:03:00,
2013-02-16 20:05:00,30.4,28.9,29.88,SSE,150,4.0,16.0,94,0.00,,,0.15,Wunderground PWS Mod,2013-02-17 01:05:00,
2013-02-16 20:10:00,30.4,28.9,29.88,SSE,150,4.0,16.0,94,0.00,,,0.15,Wunderground PWS Mod,2013-02-17 01:10:00,
2013-02-16 20:13:00,30.3,28.5,29.88,NNW,330,3.0,12.0,93,0.00,,,0.15,Wunderground PWS Mod,2013-02-17 01:13:00,
2013-02-16 20:15:00,30.3,28.3,29.88,SSE,150,2.0,7.0,92,0.00,,,0.15,Wunderground PWS Mod,2013-02-17 01:15:00,
2013-02-16 20:20:00,30.3,28.3,29.88,SSE,150,2.0,7.0,92,0.00,,,0.15,Wunderground PWS Mod,2013-02-17 01:20:00,
2013-02-16 20:23:00,30.3,28.5,29.88,NNW,331,0.0,12.0,93,0.00,,,0.15,Wunderground PWS Mod,2013-02-17 01:23:00,
2013-02-16 20:25:00,30.3,28.3,29.88,SSE,150,2.0,7.0,92,0.00,,,0.15,Wunderground PWS Mod,2013-02-17 01:25:00,
2013-02-16 20:28:00,30.3,28.3,29.88,NNW,331,0.0,12.0,92,0.00,,,0.15,Wunderground PWS Mod,2013-02-17 01:28:00,
2013-02-16 20:30:00,30.3,28.3,29.88,SSE,150,2.0,7.0,92,0.00,,,0.15,Wunderground PWS Mod,2013-02-17 01:30:00,
2013-02-16 20:35:00,30.3,28.3,29.88,SSE,150,2.0,7.0,92,0.00,,,0.15,Wunderground PWS Mod,2013-02-17 01:35:00,
2013-02-16 20:38:00,30.1,28.1,29.88,NNW,333,0.0,12.0,92,0.00,,,0.15,Wunderground PWS Mod,2013-02-17 01:38:00,
2013-02-16 20:40:00,30.3,28.3,29.88,SSE,150,2.0,7.0,92,0.00,,,0.15,Wunderground PWS Mod,2013-02-17 01:40:00,
2013-02-16 20:45:00,29.5,27.2,29.90,SSE,150,0.0,3.0,91,0.00,,,0.15,Wunderground PWS Mod,2013-02-17 01:45:00,
2013-02-16 20:48:00,30.0,28.0,29.88,NNW,333,0.0,12.0,92,0.00,,,0.15,Wunderground PWS Mod,2013-02-17 01:48:00,
2013-02-16 20:50:00,29.5,27.2,29.90,SSE,150,0.0,3.0,91,0.00,,,0.15,Wunderground PWS Mod,2013-02-17 01:50:00,
2013-02-16 20:55:00,29.5,27.2,29.90,SSE,150,0.0,3.0,91,0.00,,,0.15,Wunderground PWS Mod,2013-02-17 01:55:00,
2013-02-16 20:59:00,29.5,27.2,29.90,NNW,333,0.0,12.0,91,0.00,,,0.15,Wunderground PWS Mod,2013-02-17 01:59:00,
2013-02-16 21:00:00,29.5,27.2,29.90,SSE,150,0.0,3.0,91,0.00,,,0.15,Wunderground PWS Mod,2013-02-17 02:00:00,
2013-02-16 21:05:00,29.5,27.2,29.90,SSE,150,0.0,3.0,91,0.00,,,0.15,Wunderground PWS Mod,2013-02-17 02:05:00,
2013-02-16 21:08:00,29.1,26.8,29.90,NNW,333,0.0,12.0,91,0.00,,,0.15,Wunderground PWS Mod,2013-02-17 02:08:00,
2013-02-16 21:10:00,29.5,27.2,29.90,SSE,150,0.0,3.0,91,0.00,,,0.15,Wunderground PWS Mod,2013-02-17 02:10:00,
2013-02-16 21:15:00,28.2,26.2,29.91,SSE,150,0.0,1.0,92,0.00,,,0.15,Wunderground PWS Mod,2013-02-17 02:15:00,
2013-02-16 21:18:00,28.5,26.2,29.90,NNW,333,0.0,12.0,91,0.00,,,0.15,Wunderground PWS Mod,2013-02-17 02:18:00,
2013-02-16 21:20:00,28.2,26.2,29.91,SSE,150,0.0,1.0,92,0.00,,,0.15,Wunderground PWS Mod,2013-02-17 02:20:00,
2013-02-16 21:25:00,28.2,26.2,29.91,SSE,150,0.0,1.0,92,0.00,,,0.15,Wunderground PWS Mod,2013-02-17 02:25:00,
2013-02-16 21:28:00,28.2,26.2,29.91,NNW,333,0.0,12.0,92,0.00,,,0.15,Wunderground PWS Mod,2013-02-17 02:28:00,
2013-02-16 21:30:00,28.2,26.2,29.91,SSE,150,0.0,1.0,92,0.00,,,0.15,Wunderground PWS Mod,2013-02-17 02:30:00,
2013-02-16 21:35:00,28.2,26.2,29.91,SSE,150,0.0,1.0,92,0.00,,,0.15,Wunderground PWS Mod,2013-02-17 02:35:00,
2013-02-16 21:38:00,28.1,26.3,29.91,NNW,333,2.0,12.0,93,0.00,,,0.15,Wunderground PWS Mod,2013-02-17 02:38:00,
2013-02-16 21:40:00,28.2,26.2,29.91,SSE,150,0.0,1.0,92,0.00,,,0.15,Wunderground PWS Mod,2013-02-17 02:40:00,
2013-02-16 21:45:00,28.1,26.3,29.92,SSE,150,1.0,3.0,93,0.00,,,0.15,Wunderground PWS Mod,2013-02-17 02:45:00,
2013-02-16 21:48:00,28.1,26.3,29.92,NNW,333,0.0,12.0,93,0.00,,,0.15,Wunderground PWS Mod,2013-02-17 02:48:00,
2013-02-16 21:50:00,28.1,26.3,29.92,SSE,150,1.0,3.0,93,0.00,,,0.15,Wunderground PWS Mod,2013-02-17 02:50:00,
2013-02-16 21:58:00,28.1,26.3,29.92,NNW,333,0.0,12.0,93,0.00,,,0.15,Wunderground PWS Mod,2013-02-17 02:58:00,
2013-02-16 22:00:00,28.1,26.3,29.92,SSE,150,1.0,3.0,93,0.00,,,0.15,Wunderground PWS Mod,2013-02-17 03:00:00,
2013-02-16 22:05:00,28.1,26.3,29.92,SSE,150,1.0,3.0,93,0.00,,,0.15,Wunderground PWS Mod,2013-02-17 03:05:00,
2013-02-16 22:08:00,27.9,25.9,29.92,NNW,333,0.0,12.0,92,0.00,,,0.15,Wunderground PWS Mod,2013-02-17 03:08:00,
2013-02-16 22:10:00,28.1,26.3,29.92,SSE,150,1.0,3.0,93,0.00,,,0.15,Wunderground PWS Mod,2013-02-17 03:10:00,
2013-02-16 22:15:00,27.5,25.2,29.93,SSE,150,1.0,4.0,91,0.00,,,0.15,Wunderground PWS Mod,2013-02-17 03:15:00,
2013-02-16 22:18:00,27.8,25.5,29.92,NNW,333,1.0,12.0,91,0.00,,,0.15,Wunderground PWS Mod,2013-02-17 03:18:00,
2013-02-16 22:20:00,27.5,25.2,29.93,SSE,150,1.0,4.0,91,0.00,,,0.15,Wunderground PWS Mod,2013-02-17 03:20:00,
2013-02-16 22:23:00,27.6,25.3,29.92,NNW,333,0.0,12.0,91,0.00,,,0.15,Wunderground PWS Mod,2013-02-17 03:23:00,
2013-02-16 22:25:00,27.5,25.2,29.93,SSE,150,1.0,4.0,91,0.00,,,0.15,Wunderground PWS Mod,2013-02-17 03:25:00,
2013-02-16 22:30:00,27.5,25.2,29.93,SSE,150,1.0,4.0,91,0.00,,,0.15,Wunderground PWS Mod,2013-02-17 03:30:00,
2013-02-16 22:33:00,27.5,25.2,29.93,NNW,333,0.0,12.0,91,0.00,,,0.15,Wunderground PWS Mod,2013-02-17 03:33:00,
2013-02-16 22:35:00,27.5,25.2,29.93,SSE,150,1.0,4.0,91,0.00,,,0.15,Wunderground PWS Mod,2013-02-17 03:35:00,
2013-02-16 22:40:00,27.5,25.2,29.93,SSE,150,1.0,4.0,91,0.00,,,0.15,Wunderground PWS Mod,2013-02-17 03:40:00,
2013-02-16 22:43:00,27.2,24.9,29.93,NNW,333,0.0,12.0,91,0.00,,,0.15,Wunderground PWS Mod,2013-02-17 03:43:00,
2013-02-16 22:45:00,26.9,24.6,29.93,SSE,150,0.0,4.0,91,0.00,,,0.15,Wunderground PWS Mod,2013-02-17 03:45:00,
2013-02-16 22:50:00,26.9,24.6,29.93,SSE,150,0.0,4.0,91,0.00,,,0.15,Wunderground PWS Mod,2013-02-17 03:50:00,
2013-02-16 22:53:00,27.0,24.7,29.93,NNW,333,1.0,12.0,91,0.00,,,0.15,Wunderground PWS Mod,2013-02-17 03:53:00,
2013-02-16 22:55:00,26.9,24.6,29.93,SSE,150,0.0,4.0,91,0.00,,,0.15,Wunderground PWS Mod,2013-02-17 03:55:00,
2013-02-16 23:00:00,26.9,24.6,29.93,SSE,150,0.0,4.0,91,0.00,,,0.15,Wunderground PWS Mod,2013-02-17 04:00:00,
2013-02-16 23:04:00,26.7,24.4,29.93,NNW,333,0.0,12.0,91,0.00,,,0.15,Wunderground PWS Mod,2013-02-17 04:04:00,
2013-02-16 23:05:00,26.9,24.6,29.93,SSE,150,0.0,4.0,91,0.00,,,0.15,Wunderground PWS Mod,2013-02-17 04:05:00,
2013-02-16 23:10:00,26.9,24.6,29.93,SSE,150,0.0,4.0,91,0.00,,,0.15,Wunderground PWS Mod,2013-02-17 04:10:00,
2013-02-16 23:13:00,26.6,24.3,29.93,NNW,333,0.0,12.0,91,0.00,,,0.15,Wunderground PWS Mod,2013-02-17 04:13:00,
2013-02-16 23:15:00,26.3,23.8,29.93,SSE,150,0.0,3.0,90,0.00,,,0.15,Wunderground PWS Mod,2013-02-17 04:15:00,
2013-02-16 23:20:00,26.3,23.8,29.93,SSE,150,0.0,3.0,90,0.00,,,0.15,Wunderground PWS Mod,2013-02-17 04:20:00,
2013-02-16 23:23:00,26.4,24.1,29.93,NNW,333,0.0,12.0,91,0.00,,,0.15,Wunderground PWS Mod,2013-02-17 04:23:00,
2013-02-16 23:25:00,26.3,23.8,29.93,SSE,150,0.0,3.0,90,0.00,,,0.15,Wunderground PWS Mod,2013-02-17 04:25:00,
2013-02-16 23:30:00,26.3,23.8,29.93,SSE,150,0.0,3.0,90,0.00,,,0.15,Wunderground PWS Mod,2013-02-17 04:30:00,
2013-02-16 23:33:00,26.3,23.8,29.93,NNW,333,0.0,12.0,90,0.00,,,0.15,Wunderground PWS Mod,2013-02-17 04:33:00,
2013-02-16 23:35:00,26.3,23.8,29.93,SSE,150,0.0,3.0,90,0.00,,,0.15,Wunderground PWS Mod,2013-02-17 04:35:00,
2013-02-16 23:40:00,26.3,23.8,29.93,SSE,150,0.0,3.0,90,0.00,,,0.15,Wunderground PWS Mod,2013-02-17 04:40:00,
2013-02-16 23:43:00,26.0,23.2,29.94,NNW,333,0.0,12.0,89,0.00,,,0.15,Wunderground PWS Mod,2013-02-17 04:43:00,
2013-02-16 23:45:00,25.8,22.7,29.95,SSE,150,1.0,4.0,88,0.00,,,0.15,Wunderground PWS Mod,2013-02-17 04:45:00,
2013-02-16 23:50:00,25.8,22.7,29.95,SSE,150,1.0,4.0,88,0.00,,,0.15,Wunderground PWS Mod,2013-02-17 04:50:00,
2013-02-16 23:53:00,25.8,23.0,29.94,NNW,333,0.0,12.0,89,0.00,,,0.15,Wunderground PWS Mod,2013-02-17 04:53:00,
2013-02-16 23:55:00,25.8,22.7,29.95,SSE,150,1.0,4.0,88,0.00,,,0.15,Wunderground PWS Mod,2013-02-17 04:55:00,
2013-02-16 23:58:00,25.8,22.7,29.95,NNW,333,0.0,12.0,88,0.00,,,0.00,Wunderground PWS Mod,2013-02-17 04:58:00,